createdAt,value
2017-11-28T00:00:51.144Z,0.00
2017-11-28T00:01:51.141Z,0.00
2017-11-28T00:02:51.132Z,0.00
2017-11-28T00:03:51.130Z,0.00
2017-11-28T00:04:51.121Z,0.00
2017-11-28T00:05:51.116Z,0.00
2017-11-28T00:06:51.115Z,0.00
2017-11-28T00:07:51.106Z,0.00
2017-11-28T00:08:51.099Z,0.00
2017-11-28T00:09:51.087Z,0.00
2017-11-28T00:10:51.082Z,0.00
2017-11-28T00:11:51.078Z,0.00
2017-11-28T00:12:51.068Z,0.00
2017-11-28T00:13:51.067Z,0.00
2017-11-28T00:14:51.060Z,0.00
2017-11-28T00:15:51.051Z,0.00
2017-11-28T00:16:51.056Z,0.00
2017-11-28T00:17:51.038Z,0.00
2017-11-28T00:18:51.033Z,0.00
2017-11-28T00:19:51.029Z,0.00
2017-11-28T00:20:51.019Z,0.00
2017-11-28T00:21:51.016Z,0.00
2017-11-28T00:22:51.008Z,0.00
2017-11-28T00:23:51.008Z,0.00
2017-11-28T00:24:50.995Z,0.00
2017-11-28T00:25:50.990Z,0.00
2017-11-28T00:26:50.986Z,0.00
2017-11-28T00:27:50.976Z,0.00
2017-11-28T00:28:50.973Z,0.00
2017-11-28T00:29:50.967Z,0.00
2017-11-28T00:30:50.959Z,0.00
2017-11-28T00:31:50.957Z,0.00
2017-11-28T00:32:50.948Z,0.00
2017-11-28T00:33:50.940Z,0.00
2017-11-28T00:34:50.940Z,0.00
2017-11-28T00:35:50.928Z,0.00
2017-11-28T00:36:50.922Z,0.00
2017-11-28T00:37:50.917Z,0.00
2017-11-28T00:38:50.911Z,0.00
2017-11-28T00:39:50.905Z,0.00
2017-11-28T00:40:50.900Z,0.00
2017-11-28T00:41:50.895Z,0.00
2017-11-28T00:42:50.889Z,0.00
2017-11-28T00:43:50.886Z,0.00
2017-11-28T00:44:50.883Z,0.00
2017-11-28T00:45:50.870Z,0.00
2017-11-28T00:46:50.866Z,0.00
2017-11-28T00:47:50.859Z,0.00
2017-11-28T00:48:50.853Z,0.00
2017-11-28T00:49:50.849Z,0.00
2017-11-28T00:50:50.842Z,0.00
2017-11-28T00:51:50.836Z,0.00
2017-11-28T00:52:50.830Z,0.00
2017-11-28T00:53:50.825Z,0.00
2017-11-28T00:54:50.819Z,0.00
2017-11-28T00:55:50.813Z,0.00
2017-11-28T00:56:50.808Z,0.00
2017-11-28T00:57:50.802Z,0.00
2017-11-28T00:58:50.798Z,0.00
2017-11-28T00:59:50.792Z,0.00
2017-11-28T01:00:50.784Z,0.00
2017-11-28T01:01:50.783Z,0.00
2017-11-28T01:02:50.775Z,0.00
2017-11-28T01:03:50.767Z,0.00
2017-11-28T01:04:50.762Z,0.00
2017-11-28T01:05:50.757Z,0.00
2017-11-28T01:06:50.751Z,0.00
2017-11-28T01:07:50.745Z,0.00
2017-11-28T01:08:50.739Z,0.00
2017-11-28T01:09:50.735Z,0.00
2017-11-28T01:10:50.729Z,0.00
2017-11-28T01:11:50.723Z,0.00
2017-11-28T01:12:50.717Z,0.00
2017-11-28T01:13:50.711Z,0.00
2017-11-28T01:14:50.707Z,0.00
2017-11-28T01:15:50.701Z,0.00
2017-11-28T01:16:50.694Z,0.00
2017-11-28T01:17:50.690Z,0.00
2017-11-28T01:18:50.685Z,0.00
2017-11-28T01:19:50.677Z,0.00
2017-11-28T01:20:50.673Z,0.00
2017-11-28T01:21:50.665Z,0.00
2017-11-28T01:22:50.662Z,0.00
2017-11-28T01:23:50.655Z,0.00
2017-11-28T01:24:50.650Z,0.00
2017-11-28T01:25:50.644Z,0.00
2017-11-28T01:26:50.638Z,0.00
2017-11-28T01:27:50.641Z,0.00
2017-11-28T01:28:50.626Z,0.00
2017-11-28T01:29:50.622Z,0.00
2017-11-28T01:30:50.615Z,0.00
2017-11-28T01:31:50.611Z,0.00
2017-11-28T01:32:50.603Z,0.00
2017-11-28T01:33:50.600Z,0.00
2017-11-28T01:34:50.593Z,0.00
2017-11-28T01:35:50.587Z,0.00
2017-11-28T01:36:50.582Z,0.00
2017-11-28T01:37:50.574Z,0.00
2017-11-28T01:38:50.569Z,0.00
2017-11-28T01:39:50.562Z,0.00
2017-11-28T01:40:50.556Z,0.00
2017-11-28T01:41:50.553Z,0.00
2017-11-28T01:42:50.545Z,0.00
2017-11-28T01:43:50.540Z,0.00
2017-11-28T01:44:50.533Z,0.00
2017-11-28T01:45:50.527Z,0.00
2017-11-28T01:46:50.522Z,0.00
2017-11-28T01:47:50.515Z,0.00
2017-11-28T01:48:50.511Z,0.00
2017-11-28T01:49:50.504Z,0.00
2017-11-28T01:50:50.500Z,0.00
2017-11-28T01:51:50.491Z,0.00
2017-11-28T01:52:50.487Z,0.00
2017-11-28T01:53:50.481Z,0.00
2017-11-28T01:54:50.478Z,0.00
2017-11-28T01:55:50.469Z,0.00
2017-11-28T01:56:50.465Z,0.00
2017-11-28T01:57:50.459Z,0.00
2017-11-28T01:58:50.452Z,0.00
2017-11-28T01:59:50.446Z,0.00
2017-11-28T02:00:50.441Z,0.00
2017-11-28T02:01:50.436Z,0.00
2017-11-28T02:02:50.430Z,0.00
2017-11-28T02:03:50.424Z,0.00
2017-11-28T02:04:50.420Z,0.00
2017-11-28T02:05:50.412Z,0.00
2017-11-28T02:06:50.408Z,0.00
2017-11-28T02:07:50.403Z,0.00
2017-11-28T02:08:50.399Z,0.00
2017-11-28T02:09:50.395Z,0.00
2017-11-28T02:10:50.389Z,0.00
2017-11-28T02:11:50.378Z,0.00
2017-11-28T02:12:50.407Z,0.00
2017-11-28T02:13:50.369Z,0.00
2017-11-28T02:14:50.363Z,0.00
2017-11-28T02:15:50.356Z,0.00
2017-11-28T02:16:50.353Z,0.00
2017-11-28T02:17:50.348Z,0.00
2017-11-28T02:18:50.342Z,0.00
2017-11-28T02:19:50.336Z,0.00
2017-11-28T02:20:50.335Z,0.00
2017-11-28T02:21:50.325Z,0.00
2017-11-28T02:22:50.320Z,0.00
2017-11-28T02:23:50.314Z,0.00
2017-11-28T02:24:50.307Z,0.00
2017-11-28T02:25:50.303Z,0.00
2017-11-28T02:26:50.296Z,0.00
2017-11-28T02:27:50.291Z,0.00
2017-11-28T02:28:50.285Z,0.00
2017-11-28T02:29:50.280Z,0.00
2017-11-28T02:30:50.274Z,0.00
2017-11-28T02:31:50.270Z,0.00
2017-11-28T02:32:50.264Z,0.00
2017-11-28T02:33:50.256Z,0.00
2017-11-28T02:34:50.256Z,0.00
2017-11-28T02:35:50.245Z,0.00
2017-11-28T02:36:50.239Z,0.00
2017-11-28T02:37:50.234Z,0.00
2017-11-28T02:38:50.229Z,0.00
2017-11-28T02:39:50.225Z,0.00
2017-11-28T02:40:50.216Z,0.00
2017-11-28T02:41:50.212Z,0.00
2017-11-28T02:42:50.208Z,0.00
2017-11-28T02:43:50.201Z,0.00
2017-11-28T02:44:50.203Z,0.00
2017-11-28T02:45:50.232Z,0.00
2017-11-28T02:46:50.183Z,0.00
2017-11-28T02:47:50.177Z,0.00
2017-11-28T02:48:50.172Z,0.00
2017-11-28T02:49:50.167Z,0.00
2017-11-28T02:50:50.163Z,0.00
2017-11-28T02:51:50.156Z,0.00
2017-11-28T02:52:50.150Z,0.00
2017-11-28T02:53:50.145Z,0.00
2017-11-28T02:54:50.140Z,0.00
2017-11-28T02:55:50.133Z,0.00
2017-11-28T02:56:50.128Z,0.00
2017-11-28T02:57:50.123Z,0.00
2017-11-28T02:58:50.118Z,0.00
2017-11-28T02:59:50.112Z,0.00
2017-11-28T03:00:50.106Z,0.00
2017-11-28T03:01:50.100Z,0.00
2017-11-28T03:02:50.095Z,0.00
2017-11-28T03:03:50.106Z,0.00
2017-11-28T03:04:50.083Z,0.00
2017-11-28T03:05:50.079Z,0.00
2017-11-28T03:06:50.075Z,0.00
2017-11-28T03:07:50.066Z,0.00
2017-11-28T03:08:50.062Z,0.00
2017-11-28T03:09:50.056Z,0.00
2017-11-28T03:10:50.057Z,0.00
2017-11-28T03:11:50.044Z,0.00
2017-11-28T03:12:50.040Z,0.00
2017-11-28T03:13:50.035Z,0.00
2017-11-28T03:14:50.029Z,0.00
2017-11-28T03:15:50.023Z,0.00
2017-11-28T03:16:50.017Z,0.00
2017-11-28T03:17:50.013Z,0.00
2017-11-28T03:18:50.006Z,0.00
2017-11-28T03:19:50.000Z,0.00
2017-11-28T03:20:49.995Z,0.00
2017-11-28T03:21:49.990Z,0.00
2017-11-28T03:22:49.985Z,0.00
2017-11-28T03:23:49.979Z,0.00
2017-11-28T03:24:49.973Z,0.00
2017-11-28T03:25:49.971Z,0.00
2017-11-28T03:26:49.969Z,0.00
2017-11-28T03:27:49.955Z,0.00
2017-11-28T03:28:49.950Z,0.00
2017-11-28T03:29:49.952Z,0.00
2017-11-28T03:30:49.946Z,0.00
2017-11-28T03:31:49.932Z,0.00
2017-11-28T03:32:49.927Z,0.00
2017-11-28T03:33:49.922Z,0.00
2017-11-28T03:34:49.917Z,0.00
2017-11-28T03:35:49.911Z,0.00
2017-11-28T03:36:49.911Z,0.00
2017-11-28T03:37:49.907Z,0.00
2017-11-28T03:38:49.895Z,0.00
2017-11-28T03:39:49.889Z,0.00
2017-11-28T03:40:49.884Z,0.00
2017-11-28T03:41:49.877Z,0.00
2017-11-28T03:42:49.872Z,0.00
2017-11-28T03:43:49.866Z,0.00
2017-11-28T03:44:49.868Z,0.00
2017-11-28T03:45:49.862Z,0.00
2017-11-28T03:46:49.850Z,0.00
2017-11-28T03:47:49.843Z,0.00
2017-11-28T03:48:49.838Z,0.00
2017-11-28T03:49:49.837Z,0.00
2017-11-28T03:50:49.826Z,0.00
2017-11-28T03:51:49.826Z,0.00
2017-11-28T03:52:49.816Z,0.00
2017-11-28T03:53:49.810Z,0.00
2017-11-28T03:54:49.804Z,0.00
2017-11-28T03:55:49.798Z,0.00
2017-11-28T03:56:49.793Z,0.00
2017-11-28T03:57:49.787Z,0.00
2017-11-28T03:58:49.781Z,0.00
2017-11-28T03:59:49.775Z,0.00
2017-11-28T04:00:49.769Z,0.00
2017-11-28T04:01:49.772Z,0.00
2017-11-28T04:02:49.759Z,0.00
2017-11-28T04:03:49.753Z,0.00
2017-11-28T04:04:49.747Z,0.00
2017-11-28T04:05:49.741Z,0.00
2017-11-28T04:06:49.737Z,0.00
2017-11-28T04:07:49.729Z,0.00
2017-11-28T04:08:49.724Z,0.00
2017-11-28T04:09:49.717Z,0.00
2017-11-28T04:10:49.712Z,0.00
2017-11-28T04:11:49.707Z,0.00
2017-11-28T04:12:49.700Z,0.00
2017-11-28T04:13:49.696Z,0.00
2017-11-28T04:14:49.892Z,0.00
2017-11-28T04:15:49.682Z,0.00
2017-11-28T04:16:49.676Z,0.00
2017-11-28T04:17:49.670Z,0.00
2017-11-28T04:18:49.668Z,0.00
2017-11-28T04:19:49.668Z,0.00
2017-11-28T04:20:49.660Z,0.00
2017-11-28T04:21:49.649Z,0.00
2017-11-28T04:22:49.645Z,0.00
2017-11-28T04:23:49.636Z,0.00
2017-11-28T04:24:49.632Z,0.00
2017-11-28T04:25:49.627Z,0.00
2017-11-28T04:26:49.619Z,0.00
2017-11-28T04:27:49.614Z,0.00
2017-11-28T04:28:49.608Z,0.00
2017-11-28T04:29:49.603Z,0.00
2017-11-28T04:30:49.596Z,0.00
2017-11-28T04:31:49.590Z,0.00
2017-11-28T04:32:49.584Z,0.00
2017-11-28T04:33:49.580Z,0.00
2017-11-28T04:34:49.574Z,0.00
2017-11-28T04:35:49.568Z,0.00
2017-11-28T04:36:49.561Z,0.00
2017-11-28T04:37:49.556Z,0.00
2017-11-28T04:38:49.550Z,0.00
2017-11-28T04:39:49.548Z,0.00
2017-11-28T04:40:49.538Z,0.00
2017-11-28T04:41:49.533Z,0.00
2017-11-28T04:42:49.528Z,0.00
2017-11-28T04:43:49.522Z,0.00
2017-11-28T04:44:49.516Z,0.00
2017-11-28T04:45:49.511Z,0.00
2017-11-28T04:46:49.504Z,0.00
2017-11-28T04:47:49.497Z,0.00
2017-11-28T04:48:49.492Z,0.00
2017-11-28T04:49:49.488Z,0.00
2017-11-28T04:50:49.483Z,0.00
2017-11-28T04:51:49.475Z,0.00
2017-11-28T04:52:49.470Z,0.00
2017-11-28T04:53:49.463Z,0.00
2017-11-28T04:54:49.458Z,0.00
2017-11-28T04:55:49.451Z,0.00
2017-11-28T04:56:49.448Z,0.00
2017-11-28T04:57:49.441Z,0.00
2017-11-28T04:58:49.437Z,0.00
2017-11-28T04:59:49.453Z,0.00
2017-11-28T05:00:49.421Z,0.00
2017-11-28T05:01:49.417Z,0.00
2017-11-28T05:02:49.411Z,0.00
2017-11-28T05:03:49.411Z,0.00
2017-11-28T05:04:49.398Z,0.00
2017-11-28T05:05:49.393Z,0.00
2017-11-28T05:06:49.389Z,0.00
2017-11-28T05:07:49.380Z,0.00
2017-11-28T05:08:49.374Z,0.00
2017-11-28T05:09:49.369Z,0.00
2017-11-28T05:10:49.364Z,0.00
2017-11-28T05:11:49.355Z,0.00
2017-11-28T05:12:49.350Z,0.00
2017-11-28T05:13:49.346Z,0.00
2017-11-28T05:14:49.339Z,0.00
2017-11-28T05:15:49.333Z,0.00
2017-11-28T05:16:49.327Z,0.00
2017-11-28T05:17:49.322Z,0.00
2017-11-28T05:18:49.316Z,0.00
2017-11-28T05:19:49.310Z,0.00
2017-11-28T05:20:49.304Z,0.00
2017-11-28T05:21:49.297Z,0.00
2017-11-28T05:22:49.293Z,0.00
2017-11-28T05:23:49.289Z,0.00
2017-11-28T05:24:49.279Z,0.00
2017-11-28T05:25:49.273Z,0.00
2017-11-28T05:26:49.270Z,0.00
2017-11-28T05:27:49.276Z,0.00
2017-11-28T05:28:49.255Z,0.00
2017-11-28T05:29:49.251Z,0.00
2017-11-28T05:30:49.244Z,0.00
2017-11-28T05:31:49.238Z,0.00
2017-11-28T05:32:49.233Z,0.00
2017-11-28T05:33:49.226Z,0.00
2017-11-28T05:34:49.221Z,0.00
2017-11-28T05:35:49.214Z,0.00
2017-11-28T05:36:49.208Z,0.00
2017-11-28T05:37:49.203Z,0.00
2017-11-28T05:38:49.197Z,0.00
2017-11-28T05:39:49.189Z,0.00
2017-11-28T05:40:49.184Z,0.00
2017-11-28T05:41:49.178Z,0.00
2017-11-28T05:42:49.173Z,0.00
2017-11-28T05:43:49.167Z,0.00
2017-11-28T05:44:49.159Z,0.00
2017-11-28T05:45:49.154Z,0.00
2017-11-28T05:46:49.153Z,0.00
2017-11-28T05:47:49.141Z,0.00
2017-11-28T05:48:49.137Z,0.00
2017-11-28T05:49:49.133Z,0.00
2017-11-28T05:50:49.125Z,0.00
2017-11-28T05:51:49.116Z,0.00
2017-11-28T05:52:49.111Z,0.00
2017-11-28T05:53:49.105Z,0.00
2017-11-28T05:54:49.099Z,0.00
2017-11-28T05:55:49.092Z,0.00
2017-11-28T05:56:49.088Z,0.00
2017-11-28T05:57:49.082Z,0.00
2017-11-28T05:58:49.075Z,0.00
2017-11-28T05:59:49.069Z,0.00
2017-11-28T06:00:49.062Z,0.00
2017-11-28T06:01:49.062Z,0.00
2017-11-28T06:02:49.051Z,0.00
2017-11-28T06:03:49.044Z,4.00
2017-11-28T06:04:49.037Z,4.00
2017-11-28T06:05:49.031Z,4.00
2017-11-28T06:06:49.031Z,4.00
2017-11-28T06:07:49.020Z,0.00
2017-11-28T06:08:49.014Z,0.00
2017-11-28T06:09:49.009Z,4.00
2017-11-28T06:10:49.002Z,4.00
2017-11-28T06:11:48.996Z,8.00
2017-11-28T06:12:48.987Z,4.00
2017-11-28T06:13:48.985Z,8.00
2017-11-28T06:14:48.977Z,8.00
2017-11-28T06:15:48.971Z,4.00
2017-11-28T06:16:48.965Z,8.00
2017-11-28T06:17:48.958Z,8.00
2017-11-28T06:18:48.953Z,12.00
2017-11-28T06:19:48.945Z,16.00
2017-11-28T06:20:48.943Z,16.00
2017-11-28T06:21:48.935Z,20.00
2017-11-28T06:22:48.931Z,28.00
2017-11-28T06:23:48.921Z,32.00
2017-11-28T06:24:48.915Z,40.00
2017-11-28T06:25:48.910Z,44.00
2017-11-28T06:26:48.903Z,48.00
2017-11-28T06:27:48.905Z,48.00
2017-11-28T06:28:48.891Z,56.00
2017-11-28T06:29:48.884Z,56.00
2017-11-28T06:30:48.878Z,64.00
2017-11-28T06:31:48.872Z,68.00
2017-11-28T06:32:48.866Z,72.00
2017-11-28T06:33:48.859Z,76.00
2017-11-28T06:34:48.853Z,84.00
2017-11-28T06:35:48.845Z,96.00
2017-11-28T06:36:48.840Z,104.00
2017-11-28T06:37:48.834Z,108.00
2017-11-28T06:38:48.828Z,124.00
2017-11-28T06:39:48.859Z,132.00
2017-11-28T06:40:48.813Z,140.00
2017-11-28T06:41:48.808Z,152.00
2017-11-28T06:42:48.803Z,164.00
2017-11-28T06:43:48.796Z,180.00
2017-11-28T06:44:48.787Z,192.00
2017-11-28T06:45:48.782Z,212.00
2017-11-28T06:46:48.776Z,236.00
2017-11-28T06:47:48.768Z,256.00
2017-11-28T06:48:48.762Z,276.00
2017-11-28T06:49:48.794Z,296.00
2017-11-28T06:50:48.752Z,328.00
2017-11-28T06:51:48.745Z,352.00
2017-11-28T06:52:48.737Z,384.00
2017-11-28T06:53:48.731Z,416.00
2017-11-28T06:54:48.724Z,456.00
2017-11-28T06:55:48.718Z,496.00
2017-11-28T06:56:48.712Z,532.00
2017-11-28T06:57:48.705Z,576.00
2017-11-28T06:58:48.700Z,616.00
2017-11-28T06:59:48.692Z,664.00
2017-11-28T07:00:48.684Z,712.00
2017-11-28T07:01:48.680Z,756.00
2017-11-28T07:02:48.674Z,796.00
2017-11-28T07:03:48.668Z,840.00
2017-11-28T07:04:48.660Z,892.00
2017-11-28T07:05:48.653Z,952.00
2017-11-28T07:06:48.648Z,1008.00
2017-11-28T07:07:48.645Z,1064.00
2017-11-28T07:08:48.640Z,1116.00
2017-11-28T07:09:48.629Z,1164.00
2017-11-28T07:10:48.625Z,1216.00
2017-11-28T07:11:48.616Z,1260.00
2017-11-28T07:12:48.609Z,1304.00
2017-11-28T07:13:48.605Z,1364.00
2017-11-28T07:14:48.600Z,1440.00
2017-11-28T07:15:48.592Z,1504.00
2017-11-28T07:16:48.585Z,1572.00
2017-11-28T07:17:48.581Z,1636.00
2017-11-28T07:18:48.577Z,1712.00
2017-11-28T07:19:48.566Z,1764.00
2017-11-28T07:20:48.561Z,1828.00
2017-11-28T07:21:48.555Z,1912.00
2017-11-28T07:22:48.548Z,1996.00
2017-11-28T07:23:48.545Z,2100.00
2017-11-28T07:24:48.539Z,2208.00
2017-11-28T07:25:48.531Z,2356.00
2017-11-28T07:26:48.525Z,2508.00
2017-11-28T07:27:48.519Z,2556.00
2017-11-28T07:28:48.513Z,2588.00
2017-11-28T07:29:48.507Z,2628.00
2017-11-28T07:30:48.514Z,2692.00
2017-11-28T07:31:48.495Z,2776.00
2017-11-28T07:32:48.489Z,2924.00
2017-11-28T07:33:48.484Z,2996.00
2017-11-28T07:34:48.477Z,3016.00
2017-11-28T07:35:48.470Z,3088.00
2017-11-28T07:36:48.465Z,3072.00
2017-11-28T07:37:48.459Z,3092.00
2017-11-28T07:38:48.453Z,3132.00
2017-11-28T07:39:48.448Z,3176.00
2017-11-28T07:40:48.441Z,3176.00
2017-11-28T07:41:48.437Z,3224.00
2017-11-28T07:42:48.429Z,3324.00
2017-11-28T07:43:48.424Z,3452.00
2017-11-28T07:44:48.423Z,3576.00
2017-11-28T07:45:48.413Z,3732.00
2017-11-28T07:46:48.407Z,3800.00
2017-11-28T07:47:48.400Z,3968.00
2017-11-28T07:48:48.394Z,4100.00
2017-11-28T07:49:48.389Z,4120.00
2017-11-28T07:50:48.385Z,4308.00
2017-11-28T07:51:48.380Z,4720.00
2017-11-28T07:52:48.372Z,5968.00
2017-11-28T07:53:48.367Z,5888.00
2017-11-28T07:54:48.361Z,5280.00
2017-11-28T07:55:48.455Z,4784.00
2017-11-28T07:56:48.352Z,4768.00
2017-11-28T07:57:48.344Z,4948.00
2017-11-28T07:58:48.339Z,5488.00
2017-11-28T07:59:48.331Z,5524.00
2017-11-28T08:00:48.327Z,4984.00
2017-11-28T08:01:48.323Z,4600.00
2017-11-28T08:02:48.319Z,4504.00
2017-11-28T08:03:48.310Z,4532.00
2017-11-28T08:04:48.305Z,4576.00
2017-11-28T08:05:48.300Z,4624.00
2017-11-28T08:06:48.292Z,4780.00
2017-11-28T08:07:48.288Z,4832.00
2017-11-28T08:08:48.282Z,5352.00
2017-11-28T08:09:48.284Z,5668.00
2017-11-28T08:10:48.271Z,5232.00
2017-11-28T08:11:48.265Z,5412.00
2017-11-28T08:12:48.261Z,5324.00
2017-11-28T08:13:48.254Z,5180.00
2017-11-28T08:14:48.248Z,4996.00
2017-11-28T08:15:48.243Z,5148.00
2017-11-28T08:16:48.238Z,5088.00
2017-11-28T08:17:48.233Z,5208.00
2017-11-28T08:18:48.227Z,5336.00
2017-11-28T08:19:48.222Z,5304.00
2017-11-28T08:20:48.216Z,5248.00
2017-11-28T08:21:48.211Z,5252.00
2017-11-28T08:22:48.206Z,5260.00
2017-11-28T08:23:48.200Z,5276.00
2017-11-28T08:24:48.196Z,5312.00
2017-11-28T08:25:48.190Z,5468.00
2017-11-28T08:26:48.186Z,5680.00
2017-11-28T08:27:48.184Z,5896.00
2017-11-28T08:28:48.175Z,5924.00
2017-11-28T08:29:48.168Z,5744.00
2017-11-28T08:30:48.165Z,5804.00
2017-11-28T08:31:48.158Z,5808.00
2017-11-28T08:32:48.161Z,5876.00
2017-11-28T08:33:48.148Z,5912.00
2017-11-28T08:34:48.143Z,6192.00
2017-11-28T08:35:48.138Z,6576.00
2017-11-28T08:36:48.134Z,6980.00
2017-11-28T08:37:48.127Z,7000.00
2017-11-28T08:38:48.122Z,7056.00
2017-11-28T08:39:48.140Z,6692.00
2017-11-28T08:40:48.117Z,6536.00
2017-11-28T08:41:48.109Z,6408.00
2017-11-28T08:42:48.103Z,6484.00
2017-11-28T08:43:48.101Z,6608.00
2017-11-28T08:44:48.093Z,6676.00
2017-11-28T08:45:48.089Z,6616.00
2017-11-28T08:46:48.084Z,6684.00
2017-11-28T08:47:48.078Z,6752.00
2017-11-28T08:48:48.074Z,6720.00
2017-11-28T08:49:48.069Z,6656.00
2017-11-28T08:50:48.065Z,6432.00
2017-11-28T08:51:48.062Z,6296.00
2017-11-28T08:52:48.055Z,6276.00
2017-11-28T08:53:48.050Z,6280.00
2017-11-28T08:54:48.047Z,6036.00
2017-11-28T08:55:48.040Z,5716.00
2017-11-28T08:56:48.037Z,5728.00
2017-11-28T08:57:48.032Z,5348.00
2017-11-28T08:58:48.027Z,4960.00
2017-11-28T08:59:48.021Z,4772.00
2017-11-28T09:00:48.016Z,4560.00
2017-11-28T09:01:48.028Z,4376.00
2017-11-28T09:02:48.009Z,4248.00
2017-11-28T09:03:48.003Z,4172.00
2017-11-28T09:04:47.998Z,4076.00
2017-11-28T09:05:47.992Z,3980.00
2017-11-28T09:06:47.990Z,3940.00
2017-11-28T09:07:48.004Z,3956.00
2017-11-28T09:08:47.979Z,3968.00
2017-11-28T09:09:47.974Z,3940.00
2017-11-28T09:10:47.977Z,3912.00
2017-11-28T09:11:47.963Z,3912.00
2017-11-28T09:12:47.964Z,3908.00
2017-11-28T09:13:47.955Z,3876.00
2017-11-28T09:14:47.950Z,3864.00
2017-11-28T09:15:47.944Z,3876.00
2017-11-28T09:16:47.967Z,3888.00
2017-11-28T09:17:47.937Z,3892.00
2017-11-28T09:18:47.933Z,3892.00
2017-11-28T09:19:47.926Z,3920.00
2017-11-28T09:20:47.920Z,3936.00
2017-11-28T09:21:47.917Z,3920.00
2017-11-28T09:22:47.913Z,3896.00
2017-11-28T09:23:47.909Z,3880.00
2017-11-28T09:24:47.901Z,3912.00
2017-11-28T09:25:47.897Z,3964.00
2017-11-28T09:26:47.896Z,4064.00
2017-11-28T09:27:47.887Z,4176.00
2017-11-28T09:28:47.884Z,4300.00
2017-11-28T09:29:47.880Z,4348.00
2017-11-28T09:30:47.875Z,4376.00
2017-11-28T09:31:47.868Z,4416.00
2017-11-28T09:32:47.864Z,4472.00
2017-11-28T09:33:47.861Z,4476.00
2017-11-28T09:34:47.856Z,4488.00
2017-11-28T09:35:47.850Z,4468.00
2017-11-28T09:36:47.844Z,4468.00
2017-11-28T09:37:47.841Z,4456.00
2017-11-28T09:38:47.836Z,4436.00
2017-11-28T09:39:47.834Z,4404.00
2017-11-28T09:40:47.830Z,4320.00
2017-11-28T09:41:47.827Z,4236.00
2017-11-28T09:42:47.818Z,4184.00
2017-11-28T09:43:47.815Z,4184.00
2017-11-28T09:44:47.809Z,4264.00
2017-11-28T09:45:47.803Z,4320.00
2017-11-28T09:46:47.800Z,4420.00
2017-11-28T09:47:47.794Z,4488.00
2017-11-28T09:48:47.791Z,4584.00
2017-11-28T09:49:47.786Z,4748.00
2017-11-28T09:50:47.783Z,4668.00
2017-11-28T09:51:47.777Z,4564.00
2017-11-28T09:52:47.772Z,4548.00
2017-11-28T09:53:47.769Z,4644.00
2017-11-28T09:54:47.764Z,4580.00
2017-11-28T09:55:47.759Z,4596.00
2017-11-28T09:56:47.756Z,4708.00
2017-11-28T09:57:47.751Z,5004.00
2017-11-28T09:58:47.747Z,5252.00
2017-11-28T09:59:47.742Z,5560.00
2017-11-28T10:00:47.749Z,5388.00
2017-11-28T10:01:47.732Z,5652.00
2017-11-28T10:02:47.745Z,5836.00
2017-11-28T10:03:48.052Z,5932.00
2017-11-28T10:04:47.721Z,6156.00
2017-11-28T10:05:47.717Z,5968.00
2017-11-28T10:06:47.772Z,5832.00
2017-11-28T10:07:47.706Z,5476.00
2017-11-28T10:08:47.704Z,5344.00
2017-11-28T10:09:47.700Z,5460.00
2017-11-28T10:10:47.695Z,5592.00
2017-11-28T10:11:47.690Z,5460.00
2017-11-28T10:12:47.687Z,5792.00
2017-11-28T10:13:47.697Z,6792.00
2017-11-28T10:14:47.677Z,6492.00
2017-11-28T10:15:47.675Z,5768.00
2017-11-28T10:16:47.670Z,7220.00
2017-11-28T10:17:47.666Z,5416.00
2017-11-28T10:18:47.798Z,5420.00
2017-11-28T10:19:47.659Z,5432.00
2017-11-28T10:20:47.654Z,5300.00
2017-11-28T10:21:47.649Z,4628.00
2017-11-28T10:22:47.646Z,4548.00
2017-11-28T10:23:47.641Z,4440.00
2017-11-28T10:24:47.651Z,4156.00
2017-11-28T10:25:47.635Z,4120.00
2017-11-28T10:26:47.639Z,4144.00
2017-11-28T10:27:47.626Z,4088.00
2017-11-28T10:28:47.620Z,4112.00
2017-11-28T10:29:47.617Z,4112.00
2017-11-28T10:30:47.619Z,4144.00
2017-11-28T10:31:47.608Z,4124.00
2017-11-28T10:32:47.607Z,4124.00
2017-11-28T10:33:47.602Z,4124.00
2017-11-28T10:34:47.601Z,4088.00
2017-11-28T10:35:47.593Z,4052.00
2017-11-28T10:36:47.589Z,4024.00
2017-11-28T10:37:47.584Z,4000.00
2017-11-28T10:38:47.580Z,3992.00
2017-11-28T10:39:47.575Z,3996.00
2017-11-28T10:40:47.570Z,4044.00
2017-11-28T10:41:47.567Z,4100.00
2017-11-28T10:42:47.564Z,4080.00
2017-11-28T10:43:47.561Z,4108.00
2017-11-28T10:44:47.555Z,4152.00
2017-11-28T10:45:47.558Z,4156.00
2017-11-28T10:46:47.550Z,4172.00
2017-11-28T10:47:47.542Z,4188.00
2017-11-28T10:48:47.541Z,4196.00
2017-11-28T10:49:47.534Z,4184.00
2017-11-28T10:50:47.689Z,4164.00
2017-11-28T10:51:47.525Z,4164.00
2017-11-28T10:52:47.524Z,4188.00
2017-11-28T10:53:47.518Z,4116.00
2017-11-28T10:54:47.514Z,4128.00
2017-11-28T10:55:47.527Z,4112.00
2017-11-28T10:56:47.504Z,4064.00
2017-11-28T10:57:47.504Z,4012.00
2017-11-28T10:58:47.499Z,4008.00
2017-11-28T10:59:47.494Z,4044.00
2017-11-28T11:00:47.490Z,4068.00
2017-11-28T11:01:47.485Z,3976.00
2017-11-28T11:02:47.480Z,3956.00
2017-11-28T11:03:47.478Z,3916.00
2017-11-28T11:04:47.482Z,3912.00
2017-11-28T11:05:47.469Z,3892.00
2017-11-28T11:06:47.465Z,3896.00
2017-11-28T11:07:47.462Z,3920.00
2017-11-28T11:08:47.772Z,3968.00
2017-11-28T11:09:47.453Z,3956.00
2017-11-28T11:10:47.450Z,3912.00
2017-11-28T11:11:47.446Z,3904.00
2017-11-28T11:12:47.443Z,3908.00
2017-11-28T11:13:47.438Z,3932.00
2017-11-28T11:14:47.436Z,4008.00
2017-11-28T11:15:47.430Z,4056.00
2017-11-28T11:16:47.426Z,4052.00
2017-11-28T11:17:47.423Z,4060.00
2017-11-28T11:18:47.419Z,4048.00
2017-11-28T11:19:47.414Z,4036.00
2017-11-28T11:20:47.412Z,4004.00
2017-11-28T11:21:47.408Z,3988.00
2017-11-28T11:22:47.404Z,3972.00
2017-11-28T11:23:47.400Z,3936.00
2017-11-28T11:24:47.396Z,3880.00
2017-11-28T11:25:47.394Z,3824.00
2017-11-28T11:26:47.388Z,3788.00
2017-11-28T11:27:47.384Z,3764.00
2017-11-28T11:28:47.380Z,3744.00
2017-11-28T11:29:47.377Z,3712.00
2017-11-28T11:30:47.375Z,3704.00
2017-11-28T11:31:47.369Z,3732.00
2017-11-28T11:32:47.367Z,3764.00
2017-11-28T11:33:47.363Z,3780.00
2017-11-28T11:34:47.359Z,3804.00
2017-11-28T11:35:47.356Z,3828.00
2017-11-28T11:36:47.351Z,3868.00
2017-11-28T11:37:47.348Z,3896.00
2017-11-28T11:38:47.343Z,3924.00
2017-11-28T11:39:47.339Z,3952.00
2017-11-28T11:40:47.337Z,3964.00
2017-11-28T11:41:47.332Z,3964.00
2017-11-28T11:42:47.333Z,3976.00
2017-11-28T11:43:47.325Z,3968.00
2017-11-28T11:44:47.321Z,3948.00
2017-11-28T11:45:47.317Z,3912.00
2017-11-28T11:46:47.314Z,3876.00
2017-11-28T11:47:47.309Z,3868.00
2017-11-28T11:48:47.306Z,3852.00
2017-11-28T11:49:47.304Z,3808.00
2017-11-28T11:50:47.299Z,3776.00
2017-11-28T11:51:47.295Z,3752.00
2017-11-28T11:52:47.292Z,3732.00
2017-11-28T11:53:47.289Z,3716.00
2017-11-28T11:54:47.285Z,3692.00
2017-11-28T11:55:47.283Z,3696.00
2017-11-28T11:56:47.277Z,3720.00
2017-11-28T11:57:47.274Z,3756.00
2017-11-28T11:58:47.270Z,3792.00
2017-11-28T11:59:47.270Z,3832.00
2017-11-28T12:00:47.272Z,3860.00
2017-11-28T12:01:47.259Z,3852.00
2017-11-28T12:02:47.261Z,3860.00
2017-11-28T12:03:47.250Z,3800.00
2017-11-28T12:04:47.286Z,3732.00
2017-11-28T12:05:47.266Z,3640.00
2017-11-28T12:06:47.240Z,3552.00
2017-11-28T12:07:47.236Z,3444.00
2017-11-28T12:08:47.236Z,3328.00
2017-11-28T12:09:47.530Z,3224.00
2017-11-28T12:10:47.226Z,3164.00
2017-11-28T12:11:47.222Z,3100.00
2017-11-28T12:12:47.218Z,3032.00
2017-11-28T12:13:47.215Z,2976.00
2017-11-28T12:14:47.211Z,2920.00
2017-11-28T12:26:47.167Z,2440.00
2017-11-28T12:27:47.169Z,2420.00
2017-11-28T12:28:47.159Z,2396.00
2017-11-28T12:29:47.157Z,2380.00
2017-11-28T12:30:47.167Z,2360.00
2017-11-28T12:31:47.149Z,2348.00
2017-11-28T12:32:47.146Z,2336.00
2017-11-28T12:33:47.150Z,2332.00
2017-11-28T12:34:47.139Z,2328.00
2017-11-28T12:35:47.134Z,2320.00
2017-11-28T12:36:47.131Z,2336.00
2017-11-28T12:37:47.128Z,2360.00
2017-11-28T12:38:47.124Z,2376.00
2017-11-28T12:39:47.127Z,2376.00
2017-11-28T12:40:47.121Z,2364.00
2017-11-28T12:41:47.113Z,2344.00
2017-11-28T12:42:47.111Z,2316.00
2017-11-28T12:43:47.105Z,2296.00
2017-11-28T12:44:47.102Z,2268.00
2017-11-28T12:45:47.105Z,2244.00
2017-11-28T12:46:47.093Z,2224.00
2017-11-28T12:47:47.091Z,2220.00
2017-11-28T12:48:47.089Z,2216.00
2017-11-28T12:49:47.083Z,2216.00
2017-11-28T12:50:47.080Z,2216.00
2017-11-28T12:51:47.379Z,2208.00
2017-11-28T12:52:47.070Z,2196.00
2017-11-28T12:53:47.068Z,2184.00